Airfield :
LOGIN :

Register | Disclaimer

   EN    FR    IT 

 










Legend :    VFR   Marginal VFR   IFR   Intensive IFR   Very Intensive IFR
Visi :
Ceiling :
>= 8 km
>= 3000ft
5 to 8 km
1000 to 3000 ft
1500m to 5 km
500 to 1000 ft
800 to 1500m
200 to 500 ft
< 800m
< 200 ft
Symbols :   Thunderstorms  Fog  Heavy snow  Heavy precipitations  Wind > 20 kt
SIGMETs :     Misc.  Thunderstorms  Icing  Turbulence  Mountain Waves  Volcanic Ashes






- Airport Elevation : 37 ft
- IATA code : FRO


ENFL - Florø

CURRENT METAR :
  • 250520Z AUTO 17011KT 9999NDV -RA FEW007/// SCT013/// BKN017/// 04/03 Q1007

EXPIRED METARs :
  • 250450Z AUTO 11007KT 090V160 9999NDV -SHRA OVC017/// 03/03 Q1007
  • 250420Z AUTO 17008KT 9999NDV -SHRA SCT016/// OVC031/// 03/02 Q1007
  • 250350Z AUTO 13008KT 080V160 9999NDV -SHRA FEW011/// SCT018/// BKN036/// 03/02 Q1007
  • 250320Z AUTO 09007KT 9999NDV BKN009/// OVC011/// 03/02 Q1007

TAF TAF ENFL
Valid from the 25 at 06:00 until the 25 at 15:00 UTC


250500Z 2506/2515 17012KT 9999 -DZ SCT012 BKN025
BECMG 2509/2511 20022KT
TEMPO 2509/2515 4000 RADZ BR BKN008
TEMPO 2512/2515 20025G35KT



MET'MAP, your aeronautical weather chart ! - Copyright ORBIFLY December 2007 - Disclaimer

ORBIFLY MET'MAP TEAM :

Programming & Development : Alexandra Zaïnal
Concept & original design : Baudouin d'Aumeries
Assistance for programming : Marc-Olivier Méhu
Technical & hardware support : Manuel Goepfert

Contact : metmap@orbifly.com




SOURCES & CREDITS :

   NOAA